Time,TemperatureF,DewpointF,PressureIn,WindDirection,WindDirectionDegrees,WindSpeedMPH,WindSpeedGustMPH,Humidity,HourlyPrecipIn,Conditions,Clouds,dailyrainin,SoftwareType,DateUTC
2013-07-07 00:10:00,64.8,49.0,29.69,NW,317,0.0,-999.0,56,-99.99,,,0.00,weatherlink.com 1.10,2013-07-07 08:10:00,
2013-07-07 00:26:00,64.5,48.0,29.69,NW,317,0.0,-999.0,55,-99.99,,,0.00,weatherlink.com 1.10,2013-07-07 08:26:00,
2013-07-07 00:40:00,64.2,48.0,29.69,NW,317,0.0,-999.0,56,-99.99,,,0.00,weatherlink.com 1.10,2013-07-07 08:40:00,
2013-07-07 00:56:00,63.6,49.0,29.68,NW,317,0.0,-999.0,59,-99.99,,,0.00,weatherlink.com 1.10,2013-07-07 08:56:00,
2013-07-07 01:11:00,62.8,48.0,29.68,NW,317,0.0,-999.0,59,-99.99,,,0.00,weatherlink.com 1.10,2013-07-07 09:11:00,
2013-07-07 01:26:00,62.0,48.0,29.67,NW,317,0.0,-999.0,60,-99.99,,,0.00,weatherlink.com 1.10,2013-07-07 09:26:00,
2013-07-07 01:41:00,61.1,48.0,29.67,NW,317,0.0,-999.0,62,-99.99,,,0.00,weatherlink.com 1.10,2013-07-07 09:41:00,
2013-07-07 01:56:00,60.5,48.0,29.67,NW,317,0.0,-999.0,63,-99.99,,,0.00,weatherlink.com 1.10,2013-07-07 09:56:00,
2013-07-07 02:11:00,59.9,48.0,29.68,NW,317,0.0,-999.0,65,-99.99,,,0.00,weatherlink.com 1.10,2013-07-07 10:11:00,
2013-07-07 02:26:00,59.4,47.0,29.67,NW,317,0.0,-999.0,64,-99.99,,,0.00,weatherlink.com 1.10,2013-07-07 10:26:00,
2013-07-07 02:41:00,59.0,47.0,29.67,NW,317,0.0,-999.0,65,-99.99,,,0.00,weatherlink.com 1.10,2013-07-07 10:41:00,
2013-07-07 02:56:00,58.7,46.0,29.67,NW,317,0.0,-999.0,64,-99.99,,,0.00,weatherlink.com 1.10,2013-07-07 10:56:00,
2013-07-07 03:11:00,58.5,47.0,29.67,NW,317,0.0,-999.0,65,-99.99,,,0.00,weatherlink.com 1.10,2013-07-07 11:11:00,
2013-07-07 03:26:00,57.8,48.0,29.67,NW,317,0.0,-999.0,69,-99.99,,,0.00,weatherlink.com 1.10,2013-07-07 11:26:00,
2013-07-07 03:41:00,56.9,48.0,29.66,NW,317,0.0,-999.0,73,-99.99,,,0.00,weatherlink.com 1.10,2013-07-07 11:41:00,
2013-07-07 03:56:00,55.8,47.0,29.66,NW,317,0.0,-999.0,73,-99.99,,,0.00,weatherlink.com 1.10,2013-07-07 11:56:00,
2013-07-07 04:11:00,55.0,47.0,29.65,NW,317,0.0,-999.0,74,-99.99,,,0.00,weatherlink.com 1.10,2013-07-07 12:11:00,
2013-07-07 04:26:00,54.4,46.0,29.65,NW,317,0.0,-999.0,74,-99.99,,,0.00,weatherlink.com 1.10,2013-07-07 12:26:00,
2013-07-07 04:41:00,53.9,47.0,29.64,NW,317,0.0,-999.0,77,-99.99,,,0.00,weatherlink.com 1.10,2013-07-07 12:41:00,
2013-07-07 04:56:00,53.4,46.0,29.64,NNW,327,0.0,-999.0,76,-99.99,,,0.00,weatherlink.com 1.10,2013-07-07 12:56:00,
2013-07-07 05:11:00,53.1,46.0,29.64,NNW,327,0.0,-999.0,77,-99.99,,,0.00,weatherlink.com 1.10,2013-07-07 13:11:00,
2013-07-07 05:26:00,52.6,46.0,29.64,NNW,327,0.0,-999.0,79,-99.99,,,0.00,weatherlink.com 1.10,2013-07-07 13:26:00,
2013-07-07 05:41:00,52.2,45.0,29.64,NNW,327,0.0,-999.0,77,-99.99,,,0.00,weatherlink.com 1.10,2013-07-07 13:41:00,
2013-07-07 05:55:00,51.8,45.0,29.64,NNW,327,0.0,-999.0,78,-99.99,,,0.00,weatherlink.com 1.10,2013-07-07 13:55:00,
2013-07-07 06:11:00,51.5,45.0,29.64,NNW,327,0.0,-999.0,79,-99.99,,,0.00,weatherlink.com 1.10,2013-07-07 14:11:00,
2013-07-07 06:26:00,51.7,46.0,29.64,NNW,327,0.0,-999.0,80,-99.99,,,0.00,weatherlink.com 1.10,2013-07-07 14:26:00,
2013-07-07 06:41:00,52.5,45.0,29.64,NNW,327,0.0,-999.0,77,-99.99,,,0.00,weatherlink.com 1.10,2013-07-07 14:41:00,
2013-07-07 06:56:00,53.4,46.0,29.63,NNE,15,0.0,-999.0,75,-99.99,,,0.00,weatherlink.com 1.10,2013-07-07 14:56:00,
2013-07-07 07:11:00,54.2,45.0,29.63,NNE,29,1.0,-999.0,72,-99.99,,,0.00,weatherlink.com 1.10,2013-07-07 15:11:00,
2013-07-07 07:26:00,54.7,45.0,29.62,NNE,29,0.0,-999.0,71,-99.99,,,0.00,weatherlink.com 1.10,2013-07-07 15:26:00,
2013-07-07 07:41:00,55.3,46.0,29.61,NNE,15,1.0,-999.0,71,-99.99,,,0.00,weatherlink.com 1.10,2013-07-07 15:41:00,
2013-07-07 07:56:00,56.5,46.0,29.61,NNE,17,0.0,-999.0,69,-99.99,,,0.00,weatherlink.com 1.10,2013-07-07 15:56:00,
2013-07-07 08:11:00,58.9,47.0,29.60,ENE,57,0.0,-999.0,65,-99.99,,,0.00,weatherlink.com 1.10,2013-07-07 16:11:00,
2013-07-07 08:26:00,60.4,46.0,29.59,ENE,62,0.0,-999.0,60,-99.99,,,0.00,weatherlink.com 1.10,2013-07-07 16:26:00,
2013-07-07 08:41:00,61.2,46.0,29.59,ENE,61,0.0,-999.0,57,-99.99,,,0.00,weatherlink.com 1.10,2013-07-07 16:41:00,
2013-07-07 08:56:00,62.1,47.0,29.58,ENE,62,0.0,-999.0,59,-99.99,,,0.00,weatherlink.com 1.10,2013-07-07 16:56:00,
2013-07-07 09:11:00,62.9,46.0,29.58,ENE,61,0.0,-999.0,55,-99.99,,,0.00,weatherlink.com 1.10,2013-07-07 17:11:00,
2013-07-07 09:26:00,64.0,47.0,29.57,ENE,60,0.0,-999.0,55,-99.99,,,0.00,weatherlink.com 1.10,2013-07-07 17:26:00,
2013-07-07 09:41:00,65.4,47.0,29.57,East,81,1.0,-999.0,52,-99.99,,,0.00,weatherlink.com 1.10,2013-07-07 17:41:00,
2013-07-07 09:56:00,66.3,46.0,29.57,ENE,71,4.0,-999.0,48,-99.99,,,0.00,weatherlink.com 1.10,2013-07-07 17:56:00,
2013-07-07 10:11:00,66.9,46.0,29.56,ENE,57,0.0,-999.0,48,-99.99,,,0.00,weatherlink.com 1.10,2013-07-07 18:11:00,
2013-07-07 10:26:00,68.3,47.0,29.56,ESE,114,0.0,-999.0,46,-99.99,,,0.00,weatherlink.com 1.10,2013-07-07 18:26:00,
2013-07-07 10:41:00,69.2,47.0,29.56,ENE,70,1.0,-999.0,45,-99.99,,,0.00,weatherlink.com 1.10,2013-07-07 18:41:00,
2013-07-07 10:56:00,69.9,48.0,29.55,ENE,72,0.0,-999.0,46,-99.99,,,0.00,weatherlink.com 1.10,2013-07-07 18:56:00,
2013-07-07 11:11:00,70.4,47.0,29.55,ESE,110,0.0,-999.0,43,-99.99,,,0.00,weatherlink.com 1.10,2013-07-07 19:11:00,
2013-07-07 11:26:00,71.0,47.0,29.55,East,101,1.0,-999.0,42,-99.99,,,0.00,weatherlink.com 1.10,2013-07-07 19:26:00,
2013-07-07 11:41:00,70.7,47.0,29.54,East,80,0.0,-999.0,43,-99.99,,,0.00,weatherlink.com 1.10,2013-07-07 19:41:00,
2013-07-07 11:56:00,70.9,47.0,29.54,ENE,78,0.0,-999.0,43,-99.99,,,0.00,weatherlink.com 1.10,2013-07-07 19:56:00,
2013-07-07 12:11:00,72.2,47.0,29.54,East,79,1.0,-999.0,41,-99.99,,,0.00,weatherlink.com 1.10,2013-07-07 20:11:00,
2013-07-07 12:26:00,73.1,46.0,29.53,East,80,0.0,-999.0,38,-99.99,,,0.00,weatherlink.com 1.10,2013-07-07 20:26:00,
2013-07-07 12:41:00,73.5,45.0,29.53,East,90,0.0,-999.0,36,-99.99,,,0.00,weatherlink.com 1.10,2013-07-07 20:41:00,
2013-07-07 12:56:00,73.7,46.0,29.53,East,90,0.0,-999.0,38,-99.99,,,0.00,weatherlink.com 1.10,2013-07-07 20:56:00,
2013-07-07 13:11:00,73.6,47.0,29.53,East,89,0.0,-999.0,39,-99.99,,,0.00,weatherlink.com 1.10,2013-07-07 21:11:00,
2013-07-07 13:26:00,73.2,45.0,29.53,East,96,0.0,-999.0,37,-99.99,,,0.00,weatherlink.com 1.10,2013-07-07 21:26:00,
2013-07-07 13:41:00,72.6,45.0,29.53,East,86,0.0,-999.0,38,-99.99,,,0.00,weatherlink.com 1.10,2013-07-07 21:41:00,
2013-07-07 13:56:00,72.3,44.0,29.53,NE,38,0.0,-999.0,37,-99.99,,,0.00,weatherlink.com 1.10,2013-07-07 21:56:00,
2013-07-07 14:11:00,71.8,45.0,29.52,ESE,103,0.0,-999.0,38,-99.99,,,0.00,weatherlink.com 1.10,2013-07-07 22:11:00,
2013-07-07 14:26:00,71.4,46.0,29.52,ESE,103,0.0,-999.0,40,-99.99,,,0.00,weatherlink.com 1.10,2013-07-07 22:26:00,
2013-07-07 14:41:00,71.6,45.0,29.52,ESE,103,0.0,-999.0,38,-99.99,,,0.00,weatherlink.com 1.10,2013-07-07 22:41:00,
2013-07-07 14:56:00,72.3,46.0,29.52,ESE,103,1.0,-999.0,39,-99.99,,,0.00,weatherlink.com 1.10,2013-07-07 22:56:00,
2013-07-07 15:11:00,72.3,45.0,29.51,NNW,346,0.0,-999.0,38,-99.99,,,0.00,weatherlink.com 1.10,2013-07-07 23:11:00,
2013-07-07 15:26:00,72.5,45.0,29.50,NE,44,0.0,-999.0,37,-99.99,,,0.00,weatherlink.com 1.10,2013-07-07 23:26:00,
2013-07-07 15:41:00,72.7,46.0,29.50,NE,44,0.0,-999.0,39,-99.99,,,0.00,weatherlink.com 1.10,2013-07-07 23:41:00,
2013-07-07 15:56:00,73.4,45.0,29.49,SSW,196,0.0,-999.0,36,-99.99,,,0.00,weatherlink.com 1.10,2013-07-07 23:56:00,
2013-07-07 16:11:00,73.7,46.0,29.49,ESE,105,0.0,-999.0,37,-99.99,,,0.00,weatherlink.com 1.10,2013-07-08 00:11:00,
2013-07-07 16:26:00,74.0,45.0,29.48,ESE,109,6.0,-999.0,35,-99.99,,,0.00,weatherlink.com 1.10,2013-07-08 00:26:00,
2013-07-07 16:41:00,73.5,44.0,29.48,East,90,0.0,-999.0,35,-99.99,,,0.00,weatherlink.com 1.10,2013-07-08 00:41:00,
2013-07-07 16:56:00,73.1,44.0,29.48,NNE,15,0.0,-999.0,35,-99.99,,,0.00,weatherlink.com 1.10,2013-07-08 00:56:00,
2013-07-07 17:11:00,73.4,45.0,29.47,SE,133,0.0,-999.0,36,-99.99,,,0.00,weatherlink.com 1.10,2013-07-08 01:11:00,
2013-07-07 17:26:00,73.9,45.0,29.47,NNE,15,0.0,-999.0,36,-99.99,,,0.00,weatherlink.com 1.10,2013-07-08 01:26:00,
2013-07-07 17:41:00,73.9,48.0,29.47,NNE,18,0.0,-999.0,40,-99.99,,,0.00,weatherlink.com 1.10,2013-07-08 01:41:00,
2013-07-07 17:56:00,71.3,48.0,29.47,WNW,298,0.0,-999.0,43,-99.99,,,0.00,weatherlink.com 1.10,2013-07-08 01:56:00,
2013-07-07 18:11:00,70.6,48.0,29.48,SE,141,0.0,-999.0,45,-99.99,,,0.00,weatherlink.com 1.10,2013-07-08 02:11:00,
2013-07-07 18:26:00,71.5,48.0,29.48,North,360,0.0,-999.0,43,-99.99,,,0.00,weatherlink.com 1.10,2013-07-08 02:26:00,
2013-07-07 18:41:00,71.6,48.0,29.48,North,360,0.0,-999.0,43,-99.99,,,0.00,weatherlink.com 1.10,2013-07-08 02:41:00,
2013-07-07 18:56:00,71.8,47.0,29.47,North,360,0.0,-999.0,42,-99.99,,,0.00,weatherlink.com 1.10,2013-07-08 02:56:00,
2013-07-07 19:11:00,71.3,48.0,29.47,North,360,0.0,-999.0,43,-99.99,,,0.00,weatherlink.com 1.10,2013-07-08 03:11:00,
2013-07-07 19:26:00,70.8,48.0,29.47,North,360,0.0,-999.0,44,-99.99,,,0.00,weatherlink.com 1.10,2013-07-08 03:26:00,
2013-07-07 19:41:00,70.2,48.0,29.47,North,360,0.0,-999.0,46,-99.99,,,0.00,weatherlink.com 1.10,2013-07-08 03:41:00,
2013-07-07 19:57:00,69.4,50.0,29.47,North,360,0.0,-999.0,50,-99.99,,,0.00,weatherlink.com 1.10,2013-07-08 03:57:00,
2013-07-07 20:26:00,71.0,45.0,29.47,North,360,0.0,-999.0,40,-99.99,,,0.00,weatherlink.com 1.10,2013-07-08 04:26:00,
2013-07-07 20:41:00,72.0,46.0,29.47,North,360,0.0,-999.0,40,-99.99,,,0.00,weatherlink.com 1.10,2013-07-08 04:41:00,
2013-07-07 20:56:00,73.2,45.0,29.48,North,360,0.0,-999.0,37,-99.99,,,0.00,weatherlink.com 1.10,2013-07-08 04:56:00,
2013-07-07 21:11:00,74.4,46.0,29.48,North,360,0.0,-999.0,37,-99.99,,,0.00,weatherlink.com 1.10,2013-07-08 05:11:00,
2013-07-07 21:26:00,74.5,47.0,29.48,North,360,0.0,-999.0,38,-99.99,,,0.00,weatherlink.com 1.10,2013-07-08 05:26:00,
2013-07-07 21:41:00,73.3,49.0,29.48,NW,305,0.0,-999.0,42,-99.99,,,0.00,weatherlink.com 1.10,2013-07-08 05:41:00,
2013-07-07 21:56:00,72.1,50.0,29.48,WNW,297,0.0,-999.0,45,-99.99,,,0.00,weatherlink.com 1.10,2013-07-08 05:56:00,
2013-07-07 22:11:00,71.2,50.0,29.48,WNW,294,0.0,-999.0,48,-99.99,,,0.00,weatherlink.com 1.10,2013-07-08 06:11:00,
2013-07-07 22:26:00,71.5,51.0,29.49,WNW,294,0.0,-999.0,49,-99.99,,,0.00,weatherlink.com 1.10,2013-07-08 06:26:00,
2013-07-07 22:41:00,70.2,51.0,29.49,WNW,294,0.0,-999.0,50,-99.99,,,0.00,weatherlink.com 1.10,2013-07-08 06:41:00,
2013-07-07 22:56:00,68.7,49.0,29.49,WNW,294,0.0,-999.0,50,-99.99,,,0.00,weatherlink.com 1.10,2013-07-08 06:56:00,
2013-07-07 23:11:00,67.2,48.0,29.49,WNW,288,0.0,-999.0,50,-99.99,,,0.00,weatherlink.com 1.10,2013-07-08 07:11:00,
2013-07-07 23:26:00,65.5,48.0,29.50,WNW,286,0.0,-999.0,54,-99.99,,,0.00,weatherlink.com 1.10,2013-07-08 07:26:00,
2013-07-07 23:41:00,64.3,49.0,29.50,WNW,286,0.0,-999.0,57,-99.99,,,0.00,weatherlink.com 1.10,2013-07-08 07:41:00,
2013-07-07 23:56:00,63.2,49.0,29.51,WNW,286,0.0,-999.0,60,-99.99,,,0.00,weatherlink.com 1.10,2013-07-08 07:56:00,